Time;durP1;ratioP1;P1;durP2;ratioP2;P2;SDS_P1;SDS_P2;PMS_P1;PMS_P2;Temp;Humidity;BMP_temperature;BMP_pressure;BME280_temperature;BME280_humidity;BME280_pressure;Samples;Min_cycle;Max_cycle;Signal;HPM_P1;HPM_P2
2023/06/08 00:00:23;;;;;;;4.70;3.90;;;16.20;5.00;;;;;;5012354;28;20678;-70
2023/06/08 00:02:49;;;;;;;5.10;3.90;;;16.10;4.90;;;;;;5011936;28;20184;-70
2023/06/08 00:05:16;;;;;;;4.40;3.60;;;16.20;5.00;;;;;;5012309;28;20203;-70
2023/06/08 00:07:42;;;;;;;3.50;3.20;;;16.20;5.00;;;;;;5012202;28;20176;-70
2023/06/08 00:10:09;;;;;;;5.13;3.37;;;16.20;4.90;;;;;;5012144;28;20926;-70
2023/06/08 00:12:35;;;;;;;5.17;3.40;;;16.10;4.90;;;;;;5011935;28;20188;-70
2023/06/08 00:15:00;;;;;;;4.50;3.83;;;16.10;4.90;;;;;;5012006;28;20450;-70
2023/06/08 00:17:27;;;;;;;4.60;3.43;;;16.10;4.90;;;;;;5012020;28;20179;-70
2023/06/08 00:19:56;;;;;;;4.10;3.30;;;16.10;4.90;;;;;;5012040;28;20206;-70
2023/06/08 00:22:22;;;;;;;4.83;4.33;;;16.10;4.90;;;;;;5012016;28;20900;-70
2023/06/08 00:24:48;;;;;;;3.90;3.53;;;16.00;4.80;;;;;;5012181;28;20434;-70
2023/06/08 00:27:13;;;;;;;3.97;3.57;;;16.00;4.80;;;;;;5011929;28;20789;-70
2023/06/08 00:29:39;;;;;;;3.60;2.90;;;16.10;4.90;;;;;;5011827;28;20297;-69
2023/06/08 00:32:05;;;;;;;4.03;3.60;;;16.10;4.90;;;;;;5012033;28;20256;-68
2023/06/08 00:34:31;;;;;;;4.37;3.80;;;16.00;4.90;;;;;;5012390;28;20696;-71
2023/06/08 00:36:56;;;;;;;7.93;4.00;;;16.00;5.40;;;;;;5011727;28;20435;-70
2023/06/08 00:39:22;;;;;;;3.80;3.00;;;15.90;5.60;;;;;;5011655;28;20237;-69
2023/06/08 00:41:47;;;;;;;4.30;3.40;;;15.90;5.80;;;;;;5011899;28;20183;-69
2023/06/08 00:44:13;;;;;;;5.40;3.47;;;15.80;6.10;;;;;;5011660;28;20202;-69
2023/06/08 00:46:39;;;;;;;4.30;3.90;;;15.80;6.50;;;;;;5011522;28;20182;-69
2023/06/08 00:49:07;;;;;;;2.90;2.57;;;15.70;6.60;;;;;;5011090;28;20172;-71
2023/06/08 00:51:39;;;;;;;7.50;3.53;;;15.70;7.00;;;;;;5011304;28;20802;-71
2023/06/08 00:54:05;;;;;;;10.00;3.40;;;15.70;7.10;;;;;;5011591;28;20438;-70
2023/06/08 00:56:32;;;;;;;4.60;4.03;;;15.60;7.40;;;;;;5011346;28;20413;-69
2023/06/08 00:59:00;;;;;;;4.33;3.43;;;15.50;7.60;;;;;;5011438;28;20417;-71
2023/06/08 01:01:29;;;;;;;6.33;3.27;;;15.50;7.60;;;;;;5011134;28;20461;-70
2023/06/08 01:04:05;;;;;;;4.97;3.93;;;15.50;7.80;;;;;;5011145;28;20515;-70
2023/06/08 01:06:32;;;;;;;4.77;4.20;;;15.50;8.10;;;;;;5011535;28;20418;-71
2023/06/08 01:09:08;;;;;;;4.20;3.60;;;15.40;7.80;;;;;;5011153;28;20410;-71
2023/06/08 01:12:11;;;;;;;4.90;3.50;;;15.30;8.80;;;;;;5011092;28;20433;-71
2023/06/08 01:14:57;;;;;;;3.50;3.20;;;15.20;8.80;;;;;;5011311;28;20436;-70
2023/06/08 01:17:32;;;;;;;5.13;4.37;;;15.20;8.80;;;;;;5011190;28;20409;-70
2023/06/08 01:20:12;;;;;;;4.53;3.67;;;15.10;8.80;;;;;;5011087;28;20553;-71
2023/06/08 01:22:41;;;;;;;4.03;3.50;;;15.10;9.00;;;;;;5010861;28;20758;-70
2023/06/08 01:25:10;;;;;;;5.70;4.90;;;15.00;9.10;;;;;;5010963;28;20429;-69
2023/06/08 01:27:36;;;;;;;5.00;3.70;;;14.90;9.50;;;;;;5010956;28;20444;-71
2023/06/08 01:30:04;;;;;;;3.40;3.10;;;14.90;10.00;;;;;;5011017;28;20439;-71
2023/06/08 01:32:30;;;;;;;4.37;3.10;;;14.90;10.90;;;;;;5010731;28;20737;-70
2023/06/08 01:34:55;;;;;;;5.00;4.10;;;14.80;10.70;;;;;;5010808;28;20483;-70
2023/06/08 01:37:36;;;;;;;4.33;3.60;;;14.80;11.30;;;;;;5010978;28;20191;-70
2023/06/08 01:40:20;;;;;;;3.90;3.07;;;14.70;11.40;;;;;;5010827;28;20510;-70
2023/06/08 01:42:48;;;;;;;4.53;3.73;;;14.70;11.60;;;;;;5010594;28;20415;-70
2023/06/08 01:45:25;;;;;;;5.43;3.87;;;14.60;11.60;;;;;;5010792;28;20752;-70
2023/06/08 01:47:52;;;;;;;4.90;3.30;;;14.60;12.00;;;;;;5010836;28;20456;-71
2023/06/08 01:50:19;;;;;;;5.07;4.30;;;14.60;12.20;;;;;;5010917;28;20893;-70
2023/06/08 01:52:45;;;;;;;5.73;4.10;;;14.50;12.80;;;;;;5010495;28;20633;-70
2023/06/08 01:55:21;;;;;;;3.77;3.47;;;14.40;12.70;;;;;;5010859;28;20480;-70
2023/06/08 01:57:47;;;;;;;3.80;2.90;;;14.40;12.70;;;;;;5010923;28;20786;-70
2023/06/08 02:00:15;;;;;;;4.77;3.97;;;14.30;12.60;;;;;;5013774;28;20467;-70
2023/06/08 02:02:40;;;;;;;3.90;3.27;;;14.30;12.60;;;;;;5014363;28;20932;-70
2023/06/08 02:05:08;;;;;;;4.10;3.70;;;14.30;13.10;;;;;;5014521;28;20507;-70
2023/06/08 02:07:35;;;;;;;3.60;3.00;;;14.20;12.90;;;;;;5014555;28;20180;-70
2023/06/08 02:10:01;;;;;;;4.20;3.80;;;14.20;13.10;;;;;;5014636;28;20726;-71
2023/06/08 02:12:26;;;;;;;4.60;3.43;;;14.20;13.30;;;;;;5014276;28;20505;-71
2023/06/08 02:14:52;;;;;;;4.30;3.90;;;14.10;13.40;;;;;;5014259;28;20210;-70
2023/06/08 02:17:25;;;;;;;6.90;4.33;;;14.10;13.80;;;;;;5014285;28;20189;-71
2023/06/08 02:19:51;;;;;;;6.33;3.67;;;14.00;14.60;;;;;;5014249;28;20666;-71
2023/06/08 02:22:16;;;;;;;5.80;4.70;;;14.00;14.20;;;;;;5013967;28;20425;-70
2023/06/08 02:24:42;;;;;;;4.90;4.07;;;13.90;14.40;;;;;;5014122;28;20207;-70
2023/06/08 02:27:08;;;;;;;4.73;3.90;;;13.80;14.90;;;;;;5014164;28;20196;-70
2023/06/08 02:29:35;;;;;;;4.77;4.27;;;13.80;15.40;;;;;;5014103;28;20347;-70
2023/06/08 02:32:01;;;;;;;5.07;3.50;;;13.80;17.30;;;;;;5013811;28;20430;-69
2023/06/08 02:34:26;;;;;;;4.93;3.63;;;13.70;17.60;;;;;;5013934;28;20557;-70
2023/06/08 02:36:52;;;;;;;4.67;4.27;;;13.60;17.70;;;;;;5014061;28;20510;-70
2023/06/08 02:39:17;;;;;;;4.20;3.50;;;13.60;17.80;;;;;;5013890;28;20181;-70
2023/06/08 02:41:43;;;;;;;4.70;4.20;;;13.60;17.40;;;;;;5013565;28;20180;-70
2023/06/08 02:44:09;;;;;;;4.27;3.73;;;13.60;17.80;;;;;;5013653;28;20231;-70
2023/06/08 02:46:36;;;;;;;4.63;4.00;;;13.50;18.00;;;;;;5013936;28;20187;-70
2023/06/08 02:49:02;;;;;;;4.90;4.23;;;13.40;18.40;;;;;;5013845;28;20630;-70
2023/06/08 02:51:27;;;;;;;4.87;4.37;;;13.40;18.50;;;;;;5013606;28;20430;-70
2023/06/08 02:53:53;;;;;;;6.10;4.03;;;13.30;19.10;;;;;;5013476;28;20442;-70
2023/06/08 02:56:18;;;;;;;4.20;3.73;;;13.30;19.40;;;;;;5013644;28;20532;-71
2023/06/08 02:58:46;;;;;;;6.67;4.20;;;13.20;19.70;;;;;;5013434;28;20274;-70
2023/06/08 03:01:14;;;;;;;5.77;4.87;;;13.20;20.00;;;;;;5013622;28;20303;-72
2023/06/08 03:03:43;;;;;;;4.30;3.90;;;13.10;20.50;;;;;;5013273;28;20427;-70
2023/06/08 03:06:09;;;;;;;5.10;4.00;;;13.10;20.50;;;;;;5013537;28;20416;-70
2023/06/08 03:08:36;;;;;;;4.83;4.07;;;13.10;20.50;;;;;;5012180;28;20437;-71
2023/06/08 03:11:02;;;;;;;5.90;3.77;;;13.10;20.50;;;;;;5012629;28;20734;-70
2023/06/08 03:13:28;;;;;;;4.77;4.30;;;13.00;21.00;;;;;;5012908;28;20668;-70
2023/06/08 03:15:53;;;;;;;5.90;4.20;;;13.00;20.70;;;;;;5013331;28;20184;-70
2023/06/08 03:18:19;;;;;;;6.27;4.70;;;12.90;21.20;;;;;;5013191;28;20188;-69
2023/06/08 03:20:47;;;;;;;5.73;5.23;;;12.90;22.20;;;;;;5013300;28;20689;-71
2023/06/08 03:23:13;;;;;;;10.47;4.90;;;12.80;21.80;;;;;;5012969;28;20484;-69
2023/06/08 03:25:39;;;;;;;4.27;3.87;;;12.80;22.10;;;;;;5011571;28;20529;-70
2023/06/08 03:28:04;;;;;;;6.17;4.40;;;12.70;22.10;;;;;;5013123;28;20183;-70
2023/06/08 03:30:30;;;;;;;4.37;3.97;;;12.70;22.20;;;;;;5013136;28;20187;-73
2023/06/08 03:32:56;;;;;;;5.40;4.90;;;12.70;22.10;;;;;;5012589;28;20188;-70
2023/06/08 03:35:21;;;;;;;5.00;4.23;;;12.70;22.20;;;;;;5013131;28;20245;-71
2023/06/08 03:37:47;;;;;;;6.67;5.13;;;12.70;21.80;;;;;;5012942;28;20188;-70
2023/06/08 03:40:12;;;;;;;4.80;4.17;;;12.80;21.60;;;;;;5012687;28;20210;-70
2023/06/08 03:42:38;;;;;;;5.00;4.50;;;12.80;20.70;;;;;;5012673;28;20208;-71
2023/06/08 03:45:04;;;;;;;3.97;3.53;;;12.80;20.60;;;;;;5011518;28;20567;-72
2023/06/08 03:47:31;;;;;;;5.13;4.17;;;12.90;20.30;;;;;;5012820;28;20184;-71
2023/06/08 03:49:57;;;;;;;4.57;3.80;;;12.90;20.40;;;;;;5012724;28;20415;-71
2023/06/08 03:52:22;;;;;;;5.00;3.40;;;12.80;20.30;;;;;;5012485;28;20448;-71
2023/06/08 03:54:48;;;;;;;4.40;3.27;;;12.80;20.30;;;;;;5012486;28;20208;-70
2023/06/08 03:57:15;;;;;;;5.13;4.47;;;12.80;20.30;;;;;;5012484;28;20180;-71
2023/06/08 03:59:41;;;;;;;4.30;3.90;;;12.90;20.30;;;;;;5012480;28;20231;-71
2023/06/08 04:02:07;;;;;;;4.23;3.07;;;13.00;19.90;;;;;;5012170;28;20415;-70
2023/06/08 04:04:34;;;;;;;4.03;3.63;;;13.00;19.20;;;;;;5010961;28;20613;-71
2023/06/08 04:07:00;;;;;;;4.03;3.10;;;13.00;19.20;;;;;;5012424;28;20211;-71
2023/06/08 04:09:29;;;;;;;4.50;3.83;;;13.00;19.10;;;;;;5012125;28;20410;-70
2023/06/08 04:11:56;;;;;;;8.20;4.50;;;13.00;18.80;;;;;;5012302;28;20587;-71
2023/06/08 04:14:22;;;;;;;4.57;4.17;;;13.10;18.90;;;;;;5012236;28;20436;-71
2023/06/08 04:16:47;;;;;;;4.40;3.80;;;13.20;19.20;;;;;;5012367;28;20423;-71
2023/06/08 04:19:13;;;;;;;5.60;4.10;;;13.20;19.50;;;;;;5012196;28;20188;-70
2023/06/08 04:21:39;;;;;;;4.90;4.17;;;13.30;19.50;;;;;;5011383;28;20177;-71
2023/06/08 04:24:05;;;;;;;4.97;4.23;;;13.30;20.10;;;;;;5011460;28;20234;-70
2023/06/08 04:26:32;;;;;;;5.50;5.00;;;13.40;19.70;;;;;;5012356;28;20227;-70
2023/06/08 04:28:58;;;;;;;5.30;4.80;;;13.50;19.20;;;;;;5012904;28;20411;-70
2023/06/08 04:31:23;;;;;;;6.30;4.00;;;13.50;18.80;;;;;;5012227;28;20412;-71
2023/06/08 04:33:49;;;;;;;4.93;4.37;;;13.60;18.90;;;;;;5040710;23;20293;-69
2023/06/08 04:36:15;;;;;;;4.37;3.60;;;13.70;18.70;;;;;;5032544;28;20662;-70
2023/06/08 04:38:41;;;;;;;7.30;5.30;;;13.70;18.50;;;;;;5031159;28;20520;-67
2023/06/08 04:41:07;;;;;;;6.03;4.80;;;13.80;18.20;;;;;;5032322;28;20464;-67
2023/06/08 04:43:34;;;;;;;5.60;4.97;;;13.90;16.70;;;;;;5037282;28;20186;-67
2023/06/08 04:46:04;;;;;;;4.67;4.17;;;14.00;16.80;;;;;;5052278;28;20424;-67
2023/06/08 04:48:33;;;;;;;5.63;4.67;;;14.20;15.90;;;;;;5051010;28;20436;-68
2023/06/08 04:51:01;;;;;;;5.57;4.20;;;14.30;15.30;;;;;;5050796;28;20479;-68
2023/06/08 04:53:28;;;;;;;5.10;3.97;;;14.40;15.10;;;;;;5050583;28;20450;-68
2023/06/08 04:55:57;;;;;;;4.50;3.80;;;14.60;14.30;;;;;;5052055;28;20409;-68
2023/06/08 04:58:24;;;;;;;4.53;4.10;;;14.80;13.40;;;;;;5052365;28;20496;-67
2023/06/08 05:00:50;;;;;;;4.80;4.17;;;14.90;13.10;;;;;;5052094;28;20462;-67
2023/06/08 05:03:15;;;;;;;5.90;4.63;;;15.10;13.20;;;;;;5050741;28;20421;-67
2023/06/08 05:05:42;;;;;;;6.30;5.20;;;15.20;13.10;;;;;;5052336;28;20402;-67
2023/06/08 05:08:07;;;;;;;5.07;4.17;;;15.30;11.80;;;;;;5050912;28;20478;-67
2023/06/08 05:10:33;;;;;;;4.43;3.93;;;15.40;11.10;;;;;;5050784;28;20841;-67
2023/06/08 05:12:59;;;;;;;6.20;5.00;;;15.60;10.00;;;;;;5050538;28;20188;-67
2023/06/08 05:15:25;;;;;;;4.70;4.10;;;15.70;10.00;;;;;;5050491;28;20215;-67
2023/06/08 05:17:52;;;;;;;5.33;3.83;;;15.70;9.60;;;;;;5051915;28;20418;-68
2023/06/08 05:20:18;;;;;;;4.50;3.40;;;15.80;9.80;;;;;;5050375;28;20455;-68
2023/06/08 05:22:44;;;;;;;4.77;4.30;;;16.00;9.60;;;;;;5050226;28;20969;-68
2023/06/08 05:25:10;;;;;;;4.60;4.10;;;16.20;9.50;;;;;;5051713;28;20468;-67
2023/06/08 05:27:35;;;;;;;4.53;3.73;;;16.30;8.40;;;;;;5052391;28;20240;-68
2023/06/08 05:30:01;;;;;;;5.23;3.77;;;16.50;7.90;;;;;;5050566;28;20184;-68
2023/06/08 05:32:26;;;;;;;5.10;3.57;;;16.70;7.10;;;;;;5050091;28;20272;-69
2023/06/08 05:34:52;;;;;;;4.57;4.07;;;16.80;7.40;;;;;;5049619;28;20210;-71
2023/06/08 05:37:17;;;;;;;5.23;4.07;;;17.00;6.70;;;;;;5052683;28;20190;-68
2023/06/08 05:39:43;;;;;;;4.37;3.97;;;17.30;6.80;;;;;;5052751;28;20209;-69
2023/06/08 05:42:08;;;;;;;5.43;4.60;;;17.50;5.90;;;;;;5051751;28;20205;-68
2023/06/08 05:44:34;;;;;;;3.70;3.40;;;17.90;5.80;;;;;;5049925;28;20210;-68
2023/06/08 05:46:59;;;;;;;5.03;4.20;;;18.00;5.00;;;;;;5050505;28;20539;-69
2023/06/08 05:49:25;;;;;;;4.97;4.47;;;18.40;3.90;;;;;;5051757;28;20166;-70
2023/06/08 05:51:51;;;;;;;5.60;5.20;;;19.20;2.70;;;;;;5051985;28;20166;-71
2023/06/08 05:54:16;;;;;;;12.67;5.60;;;20.90;1.00;;;;;;5051923;28;20233;-68
2023/06/08 05:56:42;;;;;;;5.33;4.93;;;22.90;1.00;;;;;;5052076;28;20175;-68
2023/06/08 05:59:08;;;;;;;4.37;4.07;;;25.30;1.00;;;;;;5053297;28;20671;-68
2023/06/08 06:01:33;;;;;;;5.17;4.73;;;27.90;1.00;;;;;;5052750;28;20480;-69
2023/06/08 06:03:59;;;;;;;6.27;5.67;;;29.80;1.00;;;;;;5052298;28;20725;-69
2023/06/08 06:06:24;;;;;;;6.40;5.90;;;30.60;1.00;;;;;;5052508;28;20175;-69
2023/06/08 06:08:50;;;;;;;6.03;5.60;;;31.90;1.00;;;;;;5052065;28;20174;-69
2023/06/08 06:11:16;;;;;;;6.40;5.87;;;33.70;1.00;;;;;;5051410;28;20554;-69
2023/06/08 06:13:41;;;;;;;6.53;5.80;;;33.50;1.00;;;;;;5053736;28;20256;-70
2023/06/08 06:16:07;;;;;;;5.87;5.47;;;34.60;1.00;;;;;;5051522;28;20286;-69
2023/06/08 06:18:32;;;;;;;12.10;5.63;;;35.70;1.00;;;;;;5051501;28;20182;-71
2023/06/08 06:20:58;;;;;;;5.67;5.17;;;37.10;1.00;;;;;;5051865;28;20205;-69
2023/06/08 06:23:23;;;;;;;5.80;5.40;;;35.90;1.00;;;;;;5053778;28;20294;-70
2023/06/08 06:25:50;;;;;;;5.00;4.70;;;36.20;1.00;;;;;;5050045;28;20221;-70
2023/06/08 06:28:15;;;;;;;5.10;4.80;;;35.20;1.00;;;;;;5053301;28;20167;-70
2023/06/08 06:30:41;;;;;;;4.90;4.60;;;33.50;1.00;;;;;;5052869;28;20917;-70
2023/06/08 06:33:06;;;;;;;6.87;6.37;;;32.90;1.00;;;;;;5052043;28;20179;-69
2023/06/08 06:35:32;;;;;;;6.30;5.90;;;32.50;1.00;;;;;;5054014;28;20240;-70
2023/06/08 06:37:58;;;;;;;5.93;5.30;;;31.90;1.00;;;;;;5051385;28;20183;-69
2023/06/08 06:40:24;;;;;;;4.83;4.53;;;33.10;1.00;;;;;;5050258;28;20686;-70
2023/06/08 06:42:49;;;;;;;5.50;5.03;;;34.50;1.00;;;;;;5052530;28;20417;-69
2023/06/08 06:45:15;;;;;;;5.93;5.53;;;35.10;1.00;;;;;;5050092;28;20217;-69
2023/06/08 06:47:41;;;;;;;5.60;5.10;;;34.60;1.00;;;;;;5056340;28;20166;-69
2023/06/08 06:50:07;;;;;;;5.00;4.50;;;34.20;1.00;;;;;;5055142;28;20177;-69
2023/06/08 06:52:33;;;;;;;6.00;5.50;;;33.80;1.00;;;;;;5054705;28;20416;-69
2023/06/08 06:55:01;;;;;;;5.87;5.37;;;33.30;1.00;;;;;;5054912;28;20432;-69
2023/06/08 06:57:28;;;;;;;7.00;6.50;;;33.40;1.00;;;;;;5053469;28;20516;-69
2023/06/08 06:59:54;;;;;;;5.60;5.10;;;33.80;1.00;;;;;;5055232;28;20514;-70
2023/06/08 07:02:19;;;;;;;5.93;5.53;;;34.30;1.00;;;;;;5054903;28;20894;-69
2023/06/08 07:04:45;;;;;;;6.67;6.00;;;33.70;1.00;;;;;;5056463;28;20249;-69
2023/06/08 07:07:10;;;;;;;6.10;5.70;;;32.70;1.00;;;;;;5052955;28;20174;-69
2023/06/08 07:09:36;;;;;;;6.73;6.13;;;31.50;1.00;;;;;;5051885;28;20268;-69
2023/06/08 07:12:02;;;;;;;5.90;5.50;;;31.30;1.00;;;;;;5046659;28;20699;-69
2023/06/08 07:14:27;;;;;;;5.17;4.77;;;32.10;1.00;;;;;;5035452;28;20207;-71
2023/06/08 07:16:53;;;;;;;6.90;6.30;;;33.60;1.00;;;;;;5037313;28;20190;-72
2023/06/08 07:19:18;;;;;;;5.97;5.47;;;32.30;1.00;;;;;;5036541;28;20245;-70
2023/06/08 07:21:44;;;;;;;6.00;5.60;;;31.50;1.00;;;;;;5038389;28;20185;-69
2023/06/08 07:24:10;;;;;;;6.13;5.63;;;30.90;1.00;;;;;;5057170;28;20198;-70
2023/06/08 07:26:35;;;;;;;5.90;5.50;;;30.40;1.00;;;;;;5054482;28;20175;-69
2023/06/08 07:29:01;;;;;;;5.80;5.30;;;30.10;1.00;;;;;;5044163;28;20215;-69
2023/06/08 07:31:27;;;;;;;6.30;5.80;;;29.30;1.00;;;;;;5033795;28;20237;-69
2023/06/08 07:33:57;;;;;;;5.37;5.07;;;31.00;1.00;;;;;;5033499;28;20222;-69
2023/06/08 07:36:23;;;;;;;6.50;5.90;;;33.10;1.00;;;;;;5034307;28;20418;-70
2023/06/08 07:38:51;;;;;;;5.23;4.90;;;35.50;1.00;;;;;;5035463;28;20410;-69
2023/06/08 07:41:20;;;;;;;5.60;5.20;;;35.70;1.00;;;;;;5033921;28;20484;-70
2023/06/08 07:43:46;;;;;;;6.90;6.30;;;36.20;1.00;;;;;;5035476;28;20874;-70
2023/06/08 07:46:12;;;;;;;5.70;5.30;;;34.90;1.00;;;;;;5032371;28;20426;-69
2023/06/08 07:48:37;;;;;;;6.50;6.00;;;33.10;1.00;;;;;;5035477;28;20198;-69
2023/06/08 07:51:03;;;;;;;6.27;5.67;;;32.60;1.00;;;;;;5034365;28;20429;-68
2023/06/08 07:53:36;;;;;;;5.80;5.40;;;34.20;1.00;;;;;;5035135;28;20207;-70
2023/06/08 07:56:02;;;;;;;5.70;5.20;;;35.50;1.00;;;;;;5033980;28;20189;-68
2023/06/08 07:58:28;;;;;;;5.40;5.00;;;36.40;1.00;;;;;;5035355;28;20410;-68
2023/06/08 08:00:54;;;;;;;5.07;4.70;;;35.50;1.00;;;;;;5034312;28;20496;-69
2023/06/08 08:03:20;;;;;;;5.70;5.30;;;34.80;1.00;;;;;;5033160;28;20496;-69
2023/06/08 08:05:48;;;;;;;5.33;5.03;;;34.60;1.00;;;;;;5048686;28;20651;-69
2023/06/08 08:08:14;;;;;;;6.10;5.50;;;36.20;1.00;;;;;;5053604;28;20181;-69
2023/06/08 08:10:39;;;;;;;5.87;5.47;;;37.50;1.00;;;;;;5053872;28;20417;-69
2023/06/08 08:13:05;;;;;;;5.80;5.40;;;36.60;1.00;;;;;;5053999;28;20179;-69
2023/06/08 08:15:31;;;;;;;6.93;6.23;;;36.70;1.00;;;;;;5053057;28;20286;-69
2023/06/08 08:17:56;;;;;;;6.10;5.70;;;37.80;1.00;;;;;;5055064;28;20651;-69
2023/06/08 08:20:22;;;;;;;5.70;5.20;;;38.10;1.00;;;;;;5054324;28;20233;-69
2023/06/08 08:22:48;;;;;;;5.67;5.30;;;38.90;1.00;;;;;;5052520;28;20175;-69
2023/06/08 08:25:13;;;;;;;6.30;5.80;;;38.50;1.00;;;;;;5054423;28;20205;-69
2023/06/08 08:27:39;;;;;;;5.80;5.40;;;38.90;1.00;;;;;;5052949;28;20198;-69
2023/06/08 08:30:05;;;;;;;6.13;5.30;;;39.70;1.00;;;;;;5053423;28;20259;-69
2023/06/08 08:32:31;;;;;;;6.10;5.70;;;39.70;1.00;;;;;;5053429;28;20705;-70
2023/06/08 08:34:56;;;;;;;6.27;5.87;;;38.40;1.00;;;;;;5052600;28;20445;-69
2023/06/08 08:37:22;;;;;;;6.33;5.77;;;39.00;1.00;;;;;;5053210;28;20174;-69
2023/06/08 08:39:48;;;;;;;6.37;5.97;;;38.80;1.00;;;;;;5053260;28;20248;-69
2023/06/08 08:42:21;;;;;;;6.00;5.60;;;38.00;1.00;;;;;;5042485;28;20225;-70
2023/06/08 08:44:49;;;;;;;5.70;5.30;;;37.90;1.00;;;;;;5040560;28;20203;-69
2023/06/08 08:47:15;;;;;;;6.07;5.67;;;38.10;1.00;;;;;;5052028;28;20417;-69
2023/06/08 08:49:43;;;;;;;6.00;5.60;;;37.20;1.00;;;;;;5053031;28;20483;-69
2023/06/08 08:52:09;;;;;;;6.20;5.60;;;36.50;1.00;;;;;;5042656;28;20429;-69
2023/06/08 08:54:38;;;;;;;5.60;5.20;;;36.20;1.00;;;;;;5032967;28;20438;-69
2023/06/08 08:57:06;;;;;;;5.80;5.40;;;36.10;1.00;;;;;;5033806;28;20433;-70
2023/06/08 08:59:32;;;;;;;6.03;5.63;;;37.10;1.00;;;;;;5032475;28;20472;-69
2023/06/08 09:01:58;;;;;;;5.60;5.30;;;38.50;1.00;;;;;;5034165;28;20449;-69
2023/06/08 09:04:24;;;;;;;5.70;5.20;;;38.70;1.00;;;;;;5032014;28;20473;-69
2023/06/08 09:06:50;;;;;;;5.90;5.50;;;38.70;1.00;;;;;;5033533;28;20616;-69
2023/06/08 09:09:17;;;;;;;6.87;6.20;;;38.80;1.00;;;;;;5031432;28;20425;-69
2023/06/08 09:11:59;;;;;;;6.90;6.40;;;39.20;1.00;;;;;;5032831;28;20425;-69
2023/06/08 09:14:25;;;;;;;7.27;6.67;;;37.10;1.00;;;;;;5032054;28;20483;-69
2023/06/08 09:16:51;;;;;;;6.00;5.60;;;35.90;1.00;;;;;;5048558;28;20447;-69
2023/06/08 09:19:16;;;;;;;5.67;5.27;;;33.90;1.00;;;;;;5034153;28;20418;-69
2023/06/08 09:21:43;;;;;;;6.40;5.83;;;32.00;1.00;;;;;;5032031;28;20858;-69
2023/06/08 09:24:21;;;;;;;6.67;6.17;;;30.70;1.00;;;;;;5032381;28;20187;-69
2023/06/08 09:26:50;;;;;;;6.73;6.33;;;29.70;1.00;;;;;;5032744;28;20409;-69
2023/06/08 09:29:36;;;;;;;5.70;5.30;;;28.90;1.00;;;;;;5035039;28;20425;-69
2023/06/08 09:32:03;;;;;;;6.00;5.60;;;28.50;1.00;;;;;;5031822;28;20463;-69
2023/06/08 09:34:29;;;;;;;6.07;5.67;;;28.10;1.00;;;;;;5031572;28;20470;-69
2023/06/08 09:37:06;;;;;;;5.27;4.87;;;28.00;1.00;;;;;;5032576;28;20417;-68
2023/06/08 09:39:42;;;;;;;6.13;5.70;;;28.40;1.00;;;;;;5031815;28;20500;-68
2023/06/08 09:42:09;;;;;;;5.90;5.50;;;28.80;1.00;;;;;;5031757;28;20425;-68
2023/06/08 09:44:35;;;;;;;6.30;5.80;;;28.80;1.00;;;;;;5030468;28;20575;-71
2023/06/08 09:47:21;;;;;;;5.50;5.00;;;28.70;1.00;;;;;;5031881;28;20733;-68
2023/06/08 09:49:47;;;;;;;5.90;5.37;;;28.30;1.00;;;;;;5031669;28;20175;-68
2023/06/08 09:52:14;;;;;;;6.97;6.40;;;28.20;1.00;;;;;;5031282;28;20443;-68
2023/06/08 09:54:45;;;;;;;6.87;6.27;;;27.80;1.00;;;;;;5046198;28;20527;-68
2023/06/08 09:57:13;;;;;;;7.10;6.50;;;27.50;1.00;;;;;;5051509;28;20820;-68
2023/06/08 09:59:47;;;;;;;8.50;7.70;;;27.20;1.00;;;;;;5051607;28;20413;-68
2023/06/08 10:02:27;;;;;;;7.00;6.50;;;27.30;1.00;;;;;;5049850;28;20417;-68
2023/06/08 10:04:54;;;;;;;7.03;6.53;;;27.10;1.00;;;;;;5043305;28;20448;-68
2023/06/08 10:07:24;;;;;;;6.97;6.37;;;27.10;1.00;;;;;;5031414;28;20488;-68
2023/06/08 10:09:54;;;;;;;18.30;11.90;;;27.10;1.00;;;;;;5031406;28;20824;-68
2023/06/08 10:12:20;;;;;;;151.90;137.93;;;27.40;1.00;;;;;;5031393;28;20467;-69
2023/06/08 10:14:49;;;;;;;257.30;235.70;;;27.30;1.00;;;;;;5031388;28;20943;-69
2023/06/08 10:17:15;;;;;;;44.80;39.97;;;27.40;1.00;;;;;;5040997;28;20285;-69
2023/06/08 10:19:41;;;;;;;71.93;65.40;;;27.50;1.00;;;;;;5052014;28;20409;-69
2023/06/08 10:22:08;;;;;;;245.93;222.67;;;27.10;1.00;;;;;;5054916;28;20417;-69
2023/06/08 10:24:34;;;;;;;29.83;27.13;;;27.10;1.00;;;;;;5055323;28;20836;-69
2023/06/08 10:27:23;;;;;;;6.80;6.30;;;27.10;1.00;;;;;;5054756;28;20828;-70
2023/06/08 10:29:57;;;;;;;7.90;7.30;;;26.90;1.00;;;;;;5055133;28;20917;-69
2023/06/08 10:32:34;;;;;;;7.37;6.87;;;26.80;1.00;;;;;;5053450;28;20808;-69
2023/06/08 10:35:06;;;;;;;6.67;6.10;;;26.80;1.00;;;;;;5055448;28;20450;-69
2023/06/08 10:37:34;;;;;;;6.73;6.23;;;26.60;1.00;;;;;;5055106;28;20423;-69
2023/06/08 10:40:06;;;;;;;7.50;6.90;;;26.60;1.00;;;;;;5054539;28;20463;-69
2023/06/08 10:42:32;;;;;;;6.70;6.17;;;26.70;1.00;;;;;;5054590;28;20413;-69
2023/06/08 10:44:59;;;;;;;6.97;6.47;;;26.50;1.00;;;;;;5054639;28;20433;-70
2023/06/08 10:47:25;;;;;;;7.13;6.50;;;26.70;1.00;;;;;;5054577;28;20976;-69
2023/06/08 10:49:59;;;;;;;6.73;6.23;;;26.70;1.00;;;;;;5054673;28;20410;-69
2023/06/08 10:52:26;;;;;;;7.27;6.73;;;26.70;1.00;;;;;;5054217;28;20942;-69
2023/06/08 10:55:12;;;;;;;6.83;6.33;;;26.80;1.00;;;;;;5046259;28;20449;-69
2023/06/08 10:57:44;;;;;;;6.83;6.43;;;26.80;1.00;;;;;;5034783;28;20402;-70
2023/06/08 11:00:23;;;;;;;6.83;6.33;;;27.00;1.00;;;;;;5034833;28;20966;-69
2023/06/08 11:02:49;;;;;;;6.80;6.20;;;26.80;1.00;;;;;;5034253;28;20410;-69
2023/06/08 11:05:16;;;;;;;8.20;6.70;;;27.00;1.00;;;;;;5034433;28;20553;-69
2023/06/08 11:07:41;;;;;;;6.73;6.20;;;27.00;1.00;;;;;;5036256;28;20493;-69
2023/06/08 11:10:08;;;;;;;6.50;6.10;;;27.00;1.00;;;;;;5038554;28;20464;-69
2023/06/08 11:12:33;;;;;;;6.73;6.23;;;27.00;1.00;;;;;;5037617;28;20183;-69
2023/06/08 11:14:59;;;;;;;8.73;6.43;;;27.00;1.00;;;;;;5036962;28;20504;-69
2023/06/08 11:17:25;;;;;;;6.13;5.73;;;27.00;1.00;;;;;;5037221;28;20179;-69
2023/06/08 11:19:51;;;;;;;5.90;5.50;;;27.00;1.00;;;;;;5036934;28;20519;-70
2023/06/08 11:22:17;;;;;;;8.17;7.50;;;26.80;1.00;;;;;;5036889;28;20476;-69
2023/06/08 11:24:43;;;;;;;12.13;6.73;;;26.50;1.00;;;;;;5036903;28;20288;-69
2023/06/08 11:27:16;;;;;;;7.13;6.53;;;25.90;1.00;;;;;;5036738;28;20241;-69
2023/06/08 11:29:44;;;;;;;6.73;6.13;;;25.50;1.00;;;;;;5037187;28;20410;-69
2023/06/08 11:32:15;;;;;;;6.80;6.30;;;25.00;1.00;;;;;;5035984;28;20456;-69
2023/06/08 11:34:49;;;;;;;7.13;6.63;;;25.00;1.00;;;;;;5036045;28;20868;-69
2023/06/08 11:37:16;;;;;;;7.43;6.83;;;24.80;1.00;;;;;;5036497;28;20418;-69
2023/06/08 11:39:46;;;;;;;9.43;6.17;;;24.20;1.00;;;;;;5046495;28;20918;-69
2023/06/08 11:42:12;;;;;;;5.70;5.07;;;23.60;1.00;;;;;;5044553;28;20536;-69
2023/06/08 11:44:37;;;;;;;5.97;5.47;;;23.10;1.00;;;;;;5035483;28;20450;-69
2023/06/08 11:47:05;;;;;;;10.63;5.40;;;22.40;1.00;;;;;;5037595;28;20173;-69
2023/06/08 11:49:50;;;;;;;13.20;5.77;;;21.80;1.00;;;;;;5036512;28;20262;-68
2023/06/08 11:52:15;;;;;;;10.47;5.83;;;20.70;1.00;;;;;;5049873;28;21041;-69
2023/06/08 11:54:41;;;;;;;10.63;5.00;;;19.80;1.00;;;;;;5036805;28;20457;-69
2023/06/08 11:57:06;;;;;;;12.50;6.17;;;19.10;3.70;;;;;;5037005;28;20183;-69
2023/06/08 11:59:35;;;;;;;13.60;6.30;;;18.80;6.80;;;;;;5036762;28;20182;-69
2023/06/08 12:02:09;;;;;;;14.70;5.80;;;18.70;7.40;;;;;;5036383;28;20179;-69
2023/06/08 12:04:34;;;;;;;6.60;4.50;;;18.30;8.40;;;;;;5041601;28;20792;-69
2023/06/08 12:07:09;;;;;;;6.90;4.70;;;17.80;8.60;;;;;;5054647;28;20467;-69
2023/06/08 12:09:35;;;;;;;13.57;10.57;;;17.30;13.30;;;;;;5056414;28;20453;-69
2023/06/08 12:12:09;;;;;;;7.73;6.37;;;16.80;14.60;;;;;;5054768;28;20428;-69
2023/06/08 12:14:35;;;;;;;9.63;6.80;;;16.40;20.20;;;;;;5054500;28;20252;-70
2023/06/08 12:17:04;;;;;;;7.03;4.90;;;16.10;23.60;;;;;;5054888;28;20913;-70
2023/06/08 12:19:31;;;;;;;9.97;4.87;;;16.10;24.20;;;;;;5054692;28;20428;-69
2023/06/08 12:21:57;;;;;;;8.50;6.03;;;16.00;29.50;;;;;;5054688;28;20766;-69
2023/06/08 12:24:22;;;;;;;6.77;4.83;;;16.00;29.90;;;;;;5055312;28;20451;-69
2023/06/08 12:26:48;;;;;;;7.10;5.70;;;16.10;30.50;;;;;;5053915;28;20620;-69
2023/06/08 12:29:14;;;;;;;8.73;5.67;;;16.10;31.00;;;;;;5055006;28;20260;-69
2023/06/08 12:31:40;;;;;;;9.53;5.83;;;16.20;32.00;;;;;;5054846;28;20189;-69
2023/06/08 12:34:06;;;;;;;12.20;6.20;;;16.40;31.30;;;;;;5053359;28;20456;-69
2023/06/08 12:36:31;;;;;;;7.10;5.77;;;16.70;36.90;;;;;;5055434;28;20174;-69
2023/06/08 12:38:57;;;;;;;7.40;5.73;;;17.00;37.20;;;;;;5052667;28;21085;-69
2023/06/08 12:41:24;;;;;;;5.60;4.90;;;17.60;35.20;;;;;;5052447;28;20679;-70
2023/06/08 12:43:50;;;;;;;8.13;4.63;;;18.60;30.50;;;;;;5051284;28;20286;-69
2023/06/08 12:46:18;;;;;;;6.30;5.33;;;19.60;24.90;;;;;;5052400;28;20440;-69
2023/06/08 12:48:48;;;;;;;5.53;4.50;;;20.70;18.70;;;;;;5052387;28;20409;-70
2023/06/08 12:51:14;;;;;;;6.03;5.20;;;21.70;14.40;;;;;;5042052;28;20468;-70
2023/06/08 12:53:40;;;;;;;6.03;5.40;;;22.30;9.40;;;;;;5032128;28;20433;-70